sensor_id;sensor_type;location;lat;lon;timestamp;P1;durP1;ratioP1;P2;durP2;ratioP2
76373;SDS011;65197;50.164;8.012;2023-07-31T13:10:45;6.35;;;2.50;;
76373;SDS011;65197;50.164;8.012;2023-07-31T13:13:11;8.80;;;3.10;;
76373;SDS011;65197;50.164;8.012;2023-07-31T13:15:36;4.50;;;2.45;;
76373;SDS011;65197;50.164;8.012;2023-07-31T13:18:01;3.78;;;2.30;;
76373;SDS011;65197;50.164;8.012;2023-07-31T13:20:27;6.72;;;2.60;;
76373;SDS011;65197;50.164;8.012;2023-07-31T13:22:52;4.07;;;2.28;;
76373;SDS011;65197;50.164;8.012;2023-07-31T13:25:18;4.53;;;2.50;;
76373;SDS011;65197;50.164;8.012;2023-07-31T13:27:43;4.30;;;2.35;;
76373;SDS011;65197;50.164;8.012;2023-07-31T13:30:08;5.18;;;2.40;;
76373;SDS011;65197;50.164;8.012;2023-07-31T13:32:34;4.32;;;2.40;;
76373;SDS011;65197;50.164;8.012;2023-07-31T13:35:03;4.43;;;2.53;;
76373;SDS011;65197;50.164;8.012;2023-07-31T13:37:32;4.28;;;2.28;;
76373;SDS011;65197;50.164;8.012;2023-07-31T13:39:57;5.95;;;2.58;;
76373;SDS011;65197;50.164;8.012;2023-07-31T13:42:23;4.97;;;2.25;;
76373;SDS011;65197;50.164;8.012;2023-07-31T13:44:48;5.22;;;2.40;;
76373;SDS011;65197;50.164;8.012;2023-07-31T13:47:14;3.03;;;1.77;;
76373;SDS011;65197;50.164;8.012;2023-07-31T13:49:40;4.60;;;2.28;;
76373;SDS011;65197;50.164;8.012;2023-07-31T13:52:06;4.25;;;2.10;;
76373;SDS011;65197;50.164;8.012;2023-07-31T13:54:32;3.35;;;2.10;;
76373;SDS011;65197;50.164;8.012;2023-07-31T13:56:57;6.57;;;2.35;;
76373;SDS011;65197;50.164;8.012;2023-07-31T13:59:23;5.38;;;2.20;;
76373;SDS011;65197;50.164;8.012;2023-07-31T14:01:48;5.15;;;3.03;;
76373;SDS011;65197;50.164;8.012;2023-07-31T14:04:14;4.18;;;2.13;;
76373;SDS011;65197;50.164;8.012;2023-07-31T14:06:40;3.83;;;2.05;;
76373;SDS011;65197;50.164;8.012;2023-07-31T14:09:05;3.78;;;1.73;;
76373;SDS011;65197;50.164;8.012;2023-07-31T14:11:31;4.10;;;2.20;;
76373;SDS011;65197;50.164;8.012;2023-07-31T14:13:57;3.85;;;1.95;;
76373;SDS011;65197;50.164;8.012;2023-07-31T14:16:23;4.28;;;2.03;;
76373;SDS011;65197;50.164;8.012;2023-07-31T14:18:48;2.70;;;1.63;;
76373;SDS011;65197;50.164;8.012;2023-07-31T14:21:14;3.47;;;1.90;;
76373;SDS011;65197;50.164;8.012;2023-07-31T14:23:40;3.45;;;1.80;;
76373;SDS011;65197;50.164;8.012;2023-07-31T14:26:05;3.95;;;1.92;;
76373;SDS011;65197;50.164;8.012;2023-07-31T14:28:31;3.63;;;2.00;;
76373;SDS011;65197;50.164;8.012;2023-07-31T14:30:57;3.50;;;1.98;;
76373;SDS011;65197;50.164;8.012;2023-07-31T14:33:23;4.40;;;2.08;;
76373;SDS011;65197;50.164;8.012;2023-07-31T14:35:48;3.13;;;1.98;;
76373;SDS011;65197;50.164;8.012;2023-07-31T14:38:14;3.80;;;2.20;;
76373;SDS011;65197;50.164;8.012;2023-07-31T14:40:39;4.35;;;2.03;;
76373;SDS011;65197;50.164;8.012;2023-07-31T14:43:04;5.72;;;2.75;;
76373;SDS011;65197;50.164;8.012;2023-07-31T14:45:30;6.57;;;2.30;;
76373;SDS011;65197;50.164;8.012;2023-07-31T14:47:55;6.32;;;2.20;;
76373;SDS011;65197;50.164;8.012;2023-07-31T14:50:21;3.83;;;2.10;;
76373;SDS011;65197;50.164;8.012;2023-07-31T14:52:47;4.20;;;2.05;;
76373;SDS011;65197;50.164;8.012;2023-07-31T14:55:13;4.28;;;2.40;;
76373;SDS011;65197;50.164;8.012;2023-07-31T14:57:38;3.78;;;2.25;;
76373;SDS011;65197;50.164;8.012;2023-07-31T15:00:04;4.88;;;2.22;;
76373;SDS011;65197;50.164;8.012;2023-07-31T15:05:01;5.28;;;2.70;;
76373;SDS011;65197;50.164;8.012;2023-07-31T15:07:26;3.72;;;2.40;;
76373;SDS011;65197;50.164;8.012;2023-07-31T15:09:52;4.65;;;2.10;;
76373;SDS011;65197;50.164;8.012;2023-07-31T15:12:17;2.83;;;2.13;;
76373;SDS011;65197;50.164;8.012;2023-07-31T15:14:43;4.90;;;2.00;;
76373;SDS011;65197;50.164;8.012;2023-07-31T15:17:08;3.88;;;2.05;;
76373;SDS011;65197;50.164;8.012;2023-07-31T15:19:33;4.05;;;2.05;;
76373;SDS011;65197;50.164;8.012;2023-07-31T15:22:01;3.55;;;2.00;;
76373;SDS011;65197;50.164;8.012;2023-07-31T15:24:27;3.33;;;2.40;;
76373;SDS011;65197;50.164;8.012;2023-07-31T15:26:53;4.15;;;1.88;;
76373;SDS011;65197;50.164;8.012;2023-07-31T15:29:18;3.63;;;1.88;;
76373;SDS011;65197;50.164;8.012;2023-07-31T15:31:44;5.25;;;1.80;;
76373;SDS011;65197;50.164;8.012;2023-07-31T15:34:10;2.85;;;1.60;;
76373;SDS011;65197;50.164;8.012;2023-07-31T15:36:37;3.75;;;2.10;;
76373;SDS011;65197;50.164;8.012;2023-07-31T15:39:02;4.63;;;1.90;;
76373;SDS011;65197;50.164;8.012;2023-07-31T15:41:27;5.78;;;2.17;;
76373;SDS011;65197;50.164;8.012;2023-07-31T15:43:54;4.40;;;2.20;;
76373;SDS011;65197;50.164;8.012;2023-07-31T15:46:20;3.42;;;2.00;;
76373;SDS011;65197;50.164;8.012;2023-07-31T15:48:45;3.30;;;1.98;;
76373;SDS011;65197;50.164;8.012;2023-07-31T15:51:11;3.63;;;2.10;;
76373;SDS011;65197;50.164;8.012;2023-07-31T15:53:36;4.70;;;2.15;;
76373;SDS011;65197;50.164;8.012;2023-07-31T15:56:02;4.68;;;2.25;;
76373;SDS011;65197;50.164;8.012;2023-07-31T15:58:28;4.18;;;2.20;;
76373;SDS011;65197;50.164;8.012;2023-07-31T16:00:53;5.43;;;2.70;;
76373;SDS011;65197;50.164;8.012;2023-07-31T16:03:19;3.92;;;2.17;;
76373;SDS011;65197;50.164;8.012;2023-07-31T16:05:46;4.45;;;2.38;;
76373;SDS011;65197;50.164;8.012;2023-07-31T16:08:14;3.80;;;2.40;;
76373;SDS011;65197;50.164;8.012;2023-07-31T16:10:40;7.30;;;2.55;;
76373;SDS011;65197;50.164;8.012;2023-07-31T16:13:05;3.20;;;2.28;;
76373;SDS011;65197;50.164;8.012;2023-07-31T16:15:31;4.93;;;2.22;;
76373;SDS011;65197;50.164;8.012;2023-07-31T16:17:56;12.65;;;9.13;;
76373;SDS011;65197;50.164;8.012;2023-07-31T16:20:22;22.70;;;15.70;;
76373;SDS011;65197;50.164;8.012;2023-07-31T16:22:50;5.07;;;2.90;;
76373;SDS011;65197;50.164;8.012;2023-07-31T16:25:16;6.20;;;4.43;;
76373;SDS011;65197;50.164;8.012;2023-07-31T16:27:41;4.88;;;3.47;;
76373;SDS011;65197;50.164;8.012;2023-07-31T16:30:07;4.25;;;2.70;;
76373;SDS011;65197;50.164;8.012;2023-07-31T16:32:33;3.65;;;2.30;;
76373;SDS011;65197;50.164;8.012;2023-07-31T16:34:58;8.48;;;5.68;;
76373;SDS011;65197;50.164;8.012;2023-07-31T16:37:24;6.20;;;4.63;;
76373;SDS011;65197;50.164;8.012;2023-07-31T16:39:49;9.45;;;5.80;;
76373;SDS011;65197;50.164;8.012;2023-07-31T16:42:20;8.57;;;6.10;;
76373;SDS011;65197;50.164;8.012;2023-07-31T16:44:47;5.40;;;3.30;;
76373;SDS011;65197;50.164;8.012;2023-07-31T16:47:13;3.35;;;2.40;;
76373;SDS011;65197;50.164;8.012;2023-07-31T16:49:39;5.43;;;3.20;;
76373;SDS011;65197;50.164;8.012;2023-07-31T16:52:04;5.10;;;2.95;;
76373;SDS011;65197;50.164;8.012;2023-07-31T16:54:30;6.40;;;4.03;;
76373;SDS011;65197;50.164;8.012;2023-07-31T16:56:57;5.28;;;3.13;;
76373;SDS011;65197;50.164;8.012;2023-07-31T16:59:23;5.13;;;3.17;;
76373;SDS011;65197;50.164;8.012;2023-07-31T17:01:48;5.28;;;2.83;;
76373;SDS011;65197;50.164;8.012;2023-07-31T17:04:16;5.70;;;3.28;;
76373;SDS011;65197;50.164;8.012;2023-07-31T17:06:41;5.28;;;3.10;;
76373;SDS011;65197;50.164;8.012;2023-07-31T17:09:07;5.72;;;3.25;;
76373;SDS011;65197;50.164;8.012;2023-07-31T17:11:34;5.50;;;2.60;;
76373;SDS011;65197;50.164;8.012;2023-07-31T17:14:01;5.15;;;2.85;;
76373;SDS011;65197;50.164;8.012;2023-07-31T17:16:34;8.88;;;3.53;;
76373;SDS011;65197;50.164;8.012;2023-07-31T17:19:00;7.28;;;6.57;;
76373;SDS011;65197;50.164;8.012;2023-07-31T17:21:26;9.85;;;4.38;;
76373;SDS011;65197;50.164;8.012;2023-07-31T17:23:52;6.75;;;4.68;;
76373;SDS011;65197;50.164;8.012;2023-07-31T17:26:17;7.40;;;4.90;;
76373;SDS011;65197;50.164;8.012;2023-07-31T17:28:43;5.82;;;3.50;;
76373;SDS011;65197;50.164;8.012;2023-07-31T17:31:08;9.95;;;4.22;;
76373;SDS011;65197;50.164;8.012;2023-07-31T17:33:34;5.95;;;3.40;;
76373;SDS011;65197;50.164;8.012;2023-07-31T17:36:00;6.85;;;3.47;;
76373;SDS011;65197;50.164;8.012;2023-07-31T17:38:25;6.85;;;3.80;;
76373;SDS011;65197;50.164;8.012;2023-07-31T17:40:51;5.63;;;3.55;;
76373;SDS011;65197;50.164;8.012;2023-07-31T17:43:17;6.07;;;3.38;;
76373;SDS011;65197;50.164;8.012;2023-07-31T17:45:43;5.30;;;3.58;;
76373;SDS011;65197;50.164;8.012;2023-07-31T17:48:08;5.78;;;3.30;;
76373;SDS011;65197;50.164;8.012;2023-07-31T17:50:33;4.80;;;3.35;;
76373;SDS011;65197;50.164;8.012;2023-07-31T17:52:59;7.82;;;3.65;;
76373;SDS011;65197;50.164;8.012;2023-07-31T17:55:24;4.82;;;3.03;;
76373;SDS011;65197;50.164;8.012;2023-07-31T17:57:50;7.20;;;3.55;;
76373;SDS011;65197;50.164;8.012;2023-07-31T18:00:15;6.03;;;3.40;;
76373;SDS011;65197;50.164;8.012;2023-07-31T18:02:41;6.80;;;2.88;;
76373;SDS011;65197;50.164;8.012;2023-07-31T18:05:06;4.63;;;2.88;;
76373;SDS011;65197;50.164;8.012;2023-07-31T18:07:32;6.82;;;3.50;;
76373;SDS011;65197;50.164;8.012;2023-07-31T18:09:58;6.25;;;3.33;;
76373;SDS011;65197;50.164;8.012;2023-07-31T18:12:25;6.20;;;3.55;;
76373;SDS011;65197;50.164;8.012;2023-07-31T18:14:51;6.22;;;3.70;;
76373;SDS011;65197;50.164;8.012;2023-07-31T18:17:16;5.85;;;3.38;;
76373;SDS011;65197;50.164;8.012;2023-07-31T18:19:41;8.73;;;3.47;;
76373;SDS011;65197;50.164;8.012;2023-07-31T18:22:07;5.90;;;4.10;;
76373;SDS011;65197;50.164;8.012;2023-07-31T18:24:32;5.65;;;3.40;;
76373;SDS011;65197;50.164;8.012;2023-07-31T18:26:58;6.57;;;3.63;;
76373;SDS011;65197;50.164;8.012;2023-07-31T18:29:23;8.55;;;3.50;;
76373;SDS011;65197;50.164;8.012;2023-07-31T18:31:49;6.88;;;3.33;;
76373;SDS011;65197;50.164;8.012;2023-07-31T18:34:14;9.32;;;4.00;;
76373;SDS011;65197;50.164;8.012;2023-07-31T18:36:40;7.40;;;3.47;;
76373;SDS011;65197;50.164;8.012;2023-07-31T18:39:07;6.68;;;3.60;;
76373;SDS011;65197;50.164;8.012;2023-07-31T18:41:33;9.55;;;3.85;;
76373;SDS011;65197;50.164;8.012;2023-07-31T18:43:58;6.90;;;3.40;;
76373;SDS011;65197;50.164;8.012;2023-07-31T18:46:24;8.13;;;3.88;;
76373;SDS011;65197;50.164;8.012;2023-07-31T18:48:49;7.13;;;3.92;;
76373;SDS011;65197;50.164;8.012;2023-07-31T18:51:15;7.80;;;3.53;;
76373;SDS011;65197;50.164;8.012;2023-07-31T18:53:40;7.10;;;3.85;;
76373;SDS011;65197;50.164;8.012;2023-07-31T18:56:06;8.05;;;4.07;;
76373;SDS011;65197;50.164;8.012;2023-07-31T18:58:31;7.32;;;3.97;;
76373;SDS011;65197;50.164;8.012;2023-07-31T19:00:57;5.85;;;3.42;;
76373;SDS011;65197;50.164;8.012;2023-07-31T19:03:22;7.03;;;3.67;;
76373;SDS011;65197;50.164;8.012;2023-07-31T19:05:49;7.70;;;3.75;;
76373;SDS011;65197;50.164;8.012;2023-07-31T19:08:15;5.70;;;3.35;;
76373;SDS011;65197;50.164;8.012;2023-07-31T19:10:41;6.47;;;4.03;;
76373;SDS011;65197;50.164;8.012;2023-07-31T19:13:06;10.32;;;4.28;;
76373;SDS011;65197;50.164;8.012;2023-07-31T19:15:32;5.53;;;3.25;;
76373;SDS011;65197;50.164;8.012;2023-07-31T19:17:59;6.78;;;4.15;;
76373;SDS011;65197;50.164;8.012;2023-07-31T19:20:28;8.82;;;3.88;;
76373;SDS011;65197;50.164;8.012;2023-07-31T19:22:54;8.25;;;3.75;;
76373;SDS011;65197;50.164;8.012;2023-07-31T19:25:19;5.95;;;3.17;;
76373;SDS011;65197;50.164;8.012;2023-07-31T19:27:45;5.97;;;3.53;;
76373;SDS011;65197;50.164;8.012;2023-07-31T19:30:10;7.60;;;3.92;;
76373;SDS011;65197;50.164;8.012;2023-07-31T19:32:36;10.10;;;5.40;;
76373;SDS011;65197;50.164;8.012;2023-07-31T19:35:02;10.77;;;7.40;;
76373;SDS011;65197;50.164;8.012;2023-07-31T19:37:28;6.93;;;4.05;;
76373;SDS011;65197;50.164;8.012;2023-07-31T19:39:55;8.70;;;4.50;;
76373;SDS011;65197;50.164;8.012;2023-07-31T19:42:23;9.60;;;6.68;;
76373;SDS011;65197;50.164;8.012;2023-07-31T19:44:48;8.77;;;4.47;;
76373;SDS011;65197;50.164;8.012;2023-07-31T19:47:13;10.98;;;6.30;;
76373;SDS011;65197;50.164;8.012;2023-07-31T19:49:39;9.57;;;5.05;;
76373;SDS011;65197;50.164;8.012;2023-07-31T19:52:04;9.40;;;5.63;;
76373;SDS011;65197;50.164;8.012;2023-07-31T19:54:30;7.95;;;4.45;;
76373;SDS011;65197;50.164;8.012;2023-07-31T19:56:55;7.97;;;5.38;;
76373;SDS011;65197;50.164;8.012;2023-07-31T19:59:22;7.15;;;5.18;;
76373;SDS011;65197;50.164;8.012;2023-07-31T20:01:48;7.57;;;5.15;;
76373;SDS011;65197;50.164;8.012;2023-07-31T20:04:13;8.60;;;4.75;;
76373;SDS011;65197;50.164;8.012;2023-07-31T20:06:39;8.88;;;5.20;;
76373;SDS011;65197;50.164;8.012;2023-07-31T20:09:04;10.07;;;5.25;;
76373;SDS011;65197;50.164;8.012;2023-07-31T20:11:30;8.60;;;5.38;;
76373;SDS011;65197;50.164;8.012;2023-07-31T20:13:56;7.95;;;4.85;;
76373;SDS011;65197;50.164;8.012;2023-07-31T20:16:21;7.60;;;5.68;;
76373;SDS011;65197;50.164;8.012;2023-07-31T20:18:47;12.27;;;5.70;;
76373;SDS011;65197;50.164;8.012;2023-07-31T20:21:13;13.90;;;5.60;;
76373;SDS011;65197;50.164;8.012;2023-07-31T20:23:39;12.65;;;6.20;;
76373;SDS011;65197;50.164;8.012;2023-07-31T20:26:06;11.93;;;6.25;;
76373;SDS011;65197;50.164;8.012;2023-07-31T20:28:32;11.13;;;5.22;;
76373;SDS011;65197;50.164;8.012;2023-07-31T20:30:57;13.00;;;6.45;;
76373;SDS011;65197;50.164;8.012;2023-07-31T20:33:22;14.13;;;6.30;;
76373;SDS011;65197;50.164;8.012;2023-07-31T20:35:48;9.35;;;6.50;;
76373;SDS011;65197;50.164;8.012;2023-07-31T20:38:13;16.30;;;6.30;;
76373;SDS011;65197;50.164;8.012;2023-07-31T20:40:38;13.48;;;6.97;;
76373;SDS011;65197;50.164;8.012;2023-07-31T20:43:04;16.00;;;8.57;;
76373;SDS011;65197;50.164;8.012;2023-07-31T20:45:29;14.20;;;7.82;;
76373;SDS011;65197;50.164;8.012;2023-07-31T20:48:01;12.80;;;5.53;;
76373;SDS011;65197;50.164;8.012;2023-07-31T20:50:27;13.10;;;6.38;;
76373;SDS011;65197;50.164;8.012;2023-07-31T20:52:53;12.52;;;5.40;;
76373;SDS011;65197;50.164;8.012;2023-07-31T20:55:19;11.90;;;6.50;;
76373;SDS011;65197;50.164;8.012;2023-07-31T20:57:44;14.10;;;7.15;;
76373;SDS011;65197;50.164;8.012;2023-07-31T21:00:10;10.57;;;5.30;;
76373;SDS011;65197;50.164;8.012;2023-07-31T21:02:39;11.27;;;5.78;;
76373;SDS011;65197;50.164;8.012;2023-07-31T21:05:06;12.15;;;5.32;;
76373;SDS011;65197;50.164;8.012;2023-07-31T21:07:32;14.02;;;5.65;;
76373;SDS011;65197;50.164;8.012;2023-07-31T21:09:57;12.00;;;5.10;;
76373;SDS011;65197;50.164;8.012;2023-07-31T21:12:23;9.95;;;4.75;;
76373;SDS011;65197;50.164;8.012;2023-07-31T21:14:48;9.48;;;5.53;;
76373;SDS011;65197;50.164;8.012;2023-07-31T21:17:14;9.27;;;5.38;;
76373;SDS011;65197;50.164;8.012;2023-07-31T21:19:42;10.40;;;5.38;;
76373;SDS011;65197;50.164;8.012;2023-07-31T21:22:09;11.45;;;5.75;;
76373;SDS011;65197;50.164;8.012;2023-07-31T21:24:34;10.85;;;5.18;;
76373;SDS011;65197;50.164;8.012;2023-07-31T21:26:59;10.25;;;5.57;;
76373;SDS011;65197;50.164;8.012;2023-07-31T21:29:25;10.18;;;5.15;;
76373;SDS011;65197;50.164;8.012;2023-07-31T21:31:50;9.73;;;5.43;;
76373;SDS011;65197;50.164;8.012;2023-07-31T21:34:16;11.60;;;5.35;;
76373;SDS011;65197;50.164;8.012;2023-07-31T21:36:41;9.93;;;4.78;;
76373;SDS011;65197;50.164;8.012;2023-07-31T21:39:07;10.43;;;5.45;;
76373;SDS011;65197;50.164;8.012;2023-07-31T21:41:32;8.20;;;5.28;;
76373;SDS011;65197;50.164;8.012;2023-07-31T21:43:58;8.88;;;5.47;;
76373;SDS011;65197;50.164;8.012;2023-07-31T21:46:23;9.90;;;4.82;;
76373;SDS011;65197;50.164;8.012;2023-07-31T21:48:49;9.07;;;4.88;;
76373;SDS011;65197;50.164;8.012;2023-07-31T21:51:14;12.57;;;5.35;;
76373;SDS011;65197;50.164;8.012;2023-07-31T21:53:39;8.45;;;4.70;;
76373;SDS011;65197;50.164;8.012;2023-07-31T21:56:05;11.85;;;5.15;;
76373;SDS011;65197;50.164;8.012;2023-07-31T21:58:30;9.02;;;4.75;;
76373;SDS011;65197;50.164;8.012;2023-07-31T22:00:56;8.63;;;5.07;;
76373;SDS011;65197;50.164;8.012;2023-07-31T22:03:21;9.80;;;5.13;;
76373;SDS011;65197;50.164;8.012;2023-07-31T22:05:46;11.43;;;5.28;;
76373;SDS011;65197;50.164;8.012;2023-07-31T22:08:12;9.23;;;5.05;;
76373;SDS011;65197;50.164;8.012;2023-07-31T22:10:37;10.90;;;5.32;;
76373;SDS011;65197;50.164;8.012;2023-07-31T22:13:03;10.63;;;5.30;;
76373;SDS011;65197;50.164;8.012;2023-07-31T22:15:28;11.93;;;5.85;;
76373;SDS011;65197;50.164;8.012;2023-07-31T22:17:53;11.25;;;5.75;;
76373;SDS011;65197;50.164;8.012;2023-07-31T22:20:19;10.98;;;5.97;;
76373;SDS011;65197;50.164;8.012;2023-07-31T22:22:44;11.90;;;6.15;;
76373;SDS011;65197;50.164;8.012;2023-07-31T22:25:10;9.38;;;6.10;;
76373;SDS011;65197;50.164;8.012;2023-07-31T22:27:35;11.68;;;7.30;;
76373;SDS011;65197;50.164;8.012;2023-07-31T22:30:00;15.55;;;7.43;;
76373;SDS011;65197;50.164;8.012;2023-07-31T22:32:26;13.73;;;7.32;;
76373;SDS011;65197;50.164;8.012;2023-07-31T22:34:51;13.00;;;7.40;;
76373;SDS011;65197;50.164;8.012;2023-07-31T22:37:17;18.70;;;8.45;;
76373;SDS011;65197;50.164;8.012;2023-07-31T22:39:42;15.60;;;8.18;;
76373;SDS011;65197;50.164;8.012;2023-07-31T22:42:07;15.60;;;8.30;;
76373;SDS011;65197;50.164;8.012;2023-07-31T22:44:33;16.25;;;8.35;;
76373;SDS011;65197;50.164;8.012;2023-07-31T22:46:58;13.10;;;8.20;;
76373;SDS011;65197;50.164;8.012;2023-07-31T22:49:24;18.15;;;8.70;;
76373;SDS011;65197;50.164;8.012;2023-07-31T22:51:49;15.98;;;7.90;;
76373;SDS011;65197;50.164;8.012;2023-07-31T22:54:14;14.57;;;8.05;;
76373;SDS011;65197;50.164;8.012;2023-07-31T22:56:40;16.45;;;8.43;;
76373;SDS011;65197;50.164;8.012;2023-07-31T22:59:06;15.07;;;7.97;;
76373;SDS011;65197;50.164;8.012;2023-07-31T23:01:31;17.45;;;7.53;;
76373;SDS011;65197;50.164;8.012;2023-07-31T23:03:57;14.68;;;6.90;;
76373;SDS011;65197;50.164;8.012;2023-07-31T23:06:22;12.63;;;7.10;;
76373;SDS011;65197;50.164;8.012;2023-07-31T23:08:48;12.82;;;6.43;;
76373;SDS011;65197;50.164;8.012;2023-07-31T23:11:13;14.98;;;6.72;;
76373;SDS011;65197;50.164;8.012;2023-07-31T23:13:38;9.70;;;5.55;;
76373;SDS011;65197;50.164;8.012;2023-07-31T23:16:04;8.75;;;5.15;;
76373;SDS011;65197;50.164;8.012;2023-07-31T23:18:29;8.88;;;4.53;;
76373;SDS011;65197;50.164;8.012;2023-07-31T23:20:55;17.63;;;5.28;;
76373;SDS011;65197;50.164;8.012;2023-07-31T23:23:21;8.05;;;5.07;;
76373;SDS011;65197;50.164;8.012;2023-07-31T23:25:48;14.23;;;5.63;;
76373;SDS011;65197;50.164;8.012;2023-07-31T23:28:13;24.95;;;6.82;;
76373;SDS011;65197;50.164;8.012;2023-07-31T23:30:39;8.60;;;4.55;;
76373;SDS011;65197;50.164;8.012;2023-07-31T23:33:04;7.70;;;4.25;;
76373;SDS011;65197;50.164;8.012;2023-07-31T23:35:30;50.60;;;7.30;;
76373;SDS011;65197;50.164;8.012;2023-07-31T23:37:56;14.95;;;4.85;;
76373;SDS011;65197;50.164;8.012;2023-07-31T23:40:21;9.30;;;4.22;;
76373;SDS011;65197;50.164;8.012;2023-07-31T23:42:47;26.70;;;5.63;;
76373;SDS011;65197;50.164;8.012;2023-07-31T23:45:13;10.75;;;4.53;;
76373;SDS011;65197;50.164;8.012;2023-07-31T23:47:40;29.30;;;5.60;;
76373;SDS011;65197;50.164;8.012;2023-07-31T23:50:06;43.17;;;6.95;;
76373;SDS011;65197;50.164;8.012;2023-07-31T23:52:33;14.82;;;4.60;;
76373;SDS011;65197;50.164;8.012;2023-07-31T23:54:59;8.57;;;4.25;;
76373;SDS011;65197;50.164;8.012;2023-07-31T23:57:25;31.02;;;7.95;;
76373;SDS011;65197;50.164;8.012;2023-07-31T23:59:50;38.95;;;6.85;;
